^^
Vremenska postaja Bezina
 
Daily Summary for September 17, 2019 Units:  Metric    English   Both
Daily Weekly Monthly Yearly Custom
  Current: High: Low: Average:
Temperature: 16.1 °C 16.7 °C 15.7 °C 16.1 °C
Dew Point: 15.5 °C 15.7 °C 14.9 °C 15.3 °C
Humidity: 96% 96% 94% 95%
Wind Speed: 0.0km/h 3.2km/h 0.0km/h 0.1km/h
Wind Gust: 0.0km/h 9.7km/h - -
WindCalm - - South
Pressure: 1014.2 hPa 1014.6 hPa 1013.9 hPa -
Precipitation: 0.0 mm      
Historical Graphs
 
 
Tabular Data for September 17, 2019
Time Temperature Dew Point Pressure Wind Wind Speed Wind Gust Humidity Rainfall Rate (Hourly)
00:15 16.7 °C 15.7 °C 1014.4 hPa Calm     94% 0.0 mm
00:30 16.7 °C 15.7 °C 1014.5 hPa Calm     94% 0.0 mm
00:45 16.6 °C 15.7 °C 1014.4 hPa Calm     94% 0.0 mm
01:00 16.5 °C 15.6 °C 1014.4 hPa Calm   1.6 km/h 94% 0.0 mm
01:15 16.4 °C 15.5 °C 1014.3 hPa Calm     94% 0.0 mm
01:30 16.3 °C 15.3 °C 1014.2 hPa Calm     94% 0.0 mm
01:45 16.2 °C 15.4 °C 1014.2 hPa Calm     95% 0.0 mm
02:00 16.1 °C 15.3 °C 1014.1 hPa Calm     95% 0.0 mm
02:15 15.9 °C 15.2 °C 1014.1 hPa Calm     95% 0.0 mm
02:30 15.8 °C 15.1 °C 1013.9 hPa Calm   1.6 km/h 95% 0.0 mm
02:45 15.8 °C 15.0 °C 1013.9 hPa Calm     95% 0.0 mm
03:00 15.8 °C 15.0 °C 1014.1 hPa Calm     95% 0.0 mm
03:15 15.7 °C 14.9 °C 1014.2 hPa Calm     95% 0.0 mm
03:30 15.8 °C 15.2 °C 1014.4 hPa Calm   3.2 km/h 96% 0.0 mm
03:45 15.8 °C 15.2 °C 1014.4 hPa Calm   1.6 km/h 96% 0.0 mm
04:00 15.8 °C 15.2 °C 1014.6 hPa South 3.2 km/h 6.4 km/h 96% 0.0 mm
04:15 16.1 °C 15.4 °C 1014.6 hPa Calm     96% 0.0 mm
04:30 16.0 °C 15.4 °C 1014.5 hPa Calm   3.2 km/h 96% 0.0 mm
04:45 15.9 °C 15.3 °C 1014.4 hPa Calm   3.2 km/h 96% 0.0 mm
05:00 15.8 °C 15.2 °C 1014.3 hPa Calm   9.7 km/h 96% 0.0 mm
05:15 16.0 °C 15.4 °C 1014.2 hPa Calm     96% 0.0 mm
05:30 15.9 °C 15.3 °C 1014.2 hPa Calm     96% 0.0 mm
05:45 16.0 °C 15.4 °C 1014.1 hPa Calm     96% 0.0 mm
06:00 16.1 °C 15.4 °C 1014.1 hPa Calm     96% 0.0 mm
06:15 16.1 °C 15.5 °C 1013.9 hPa Calm     96% 0.0 mm
06:30 16.1 °C 15.5 °C 1014.2 hPa Calm     96% 0.0 mm
Juneau County Weather
Compliments of Weather Underground - 1.5 mb